首页
METAR-TAF:

METAR-TAF

机场 :

斯德哥爾摩-阿蘭達機場

斯德哥爾摩-阿蘭達, 瑞典

纬度: 59-39N, 经度: 017-57E, 海拔: 38米

当前天气观测

该预报发布于30分钟前的16:20 UTC
风速6节,风向
温度 5°C
湿度 100%
气压 1028 hPa
能見度: 5000
散云层高于300英尺
轻雾

METAR: ESSA 201620Z 08006KT 5000 R01L/P1500N R19R/P1500N R01R/P1500N R19L/P1500N BR SCT003 05/05 Q1028 R01L/19//95 R08/19//95 R01R/19//95 TEMPO 1200 BR

时间: 17:50 (16:50 UTC)

预报

该预报发布于4小时和56分钟前的11:54 UTC
预报有效从20日的 12点(UTC)到 21日的 12点(UTC)
风速5节,风向南转西南
能见度10公里或以上
多云层高于2000英尺
几率 40%
从 20日的 12点(UTC)到 20日的 15点(UTC)
多云层高于700英尺
几率 40%
从 20日的 15点(UTC)到 20日的 20点(UTC)
能見度: 1200
多云层高于300英尺
轻雾
成为
从 20日的 18点(UTC)到 20日的 20点(UTC)
风速10节,风向东南
短暂存在
从 20日的 20点(UTC)到 21日的 06点(UTC)
多云层高于600英尺
几率 40%
从 21日的 06点(UTC)到 21日的 12点(UTC)
多云层高于1000英尺

TAF: ESSA 201154Z 2012/2112 20005KT 9999 BKN020 PROB40 2012/2015 BKN007 PROB40 2015/2020 1200 BR BKN003 BECMG 2018/2020 14010KT TEMPO 2020/2106 BKN006 PROB40 2106/2112 BKN010

超过4000个机场的气象观测和天气预报(METAR&TAF报告)。

可查询的气象台以黄色和红色小点在地图上表示。

将鼠标移到小点上方,可查看气象台名称。

然后点击查看天气观测和预报。

如需切换地图:点击带黑十字的绿色按钮放大地图;点击带横线的绿色按钮缩小地图;或者点击绿色箭头查看邻近地区的地图。


METAR-TAF: